createdAt,value
2022-09-30T00:01:43.033Z,100.00
2022-09-30T00:04:14.951Z,100.00
2022-09-30T00:06:42.680Z,100.00
2022-09-30T00:09:13.122Z,100.00
2022-09-30T00:11:41.843Z,100.00
2022-09-30T00:14:15.250Z,100.00
2022-09-30T00:16:42.794Z,100.00
2022-09-30T00:19:10.144Z,100.00
2022-09-30T00:21:38.259Z,100.00
2022-09-30T00:24:07.507Z,100.00
2022-09-30T00:26:35.805Z,100.00
2022-09-30T00:29:03.577Z,100.00
2022-09-30T00:31:34.739Z,100.00
2022-09-30T00:34:08.732Z,100.00
2022-09-30T00:36:45.662Z,100.00
2022-09-30T00:39:22.035Z,100.00
2022-09-30T00:41:53.412Z,100.00
2022-09-30T00:45:11.022Z,100.00
2022-09-30T00:47:56.477Z,100.00
2022-09-30T00:50:37.189Z,100.00
2022-09-30T00:53:14.674Z,100.00
2022-09-30T00:55:51.953Z,100.00
2022-09-30T00:58:30.293Z,100.00
2022-09-30T01:01:00.308Z,100.00
2022-09-30T01:03:31.189Z,100.00
2022-09-30T01:05:58.853Z,100.00
2022-09-30T01:08:28.337Z,100.00
2022-09-30T01:10:55.504Z,100.00
2022-09-30T01:13:27.542Z,100.00
2022-09-30T01:16:19.751Z,100.00
2022-09-30T01:19:15.106Z,100.00
2022-09-30T01:22:01.442Z,100.00
2022-09-30T01:24:58.186Z,100.00
2022-09-30T01:27:47.058Z,100.00
2022-09-30T01:30:22.209Z,100.00
2022-09-30T01:33:21.470Z,100.00
2022-09-30T01:35:49.102Z,100.00
2022-09-30T01:38:22.246Z,100.00
2022-09-30T01:40:53.987Z,100.00
2022-09-30T01:43:48.122Z,100.00
2022-09-30T01:46:38.919Z,100.00
2022-09-30T01:49:31.305Z,100.00
2022-09-30T01:52:07.488Z,100.00
2022-09-30T01:55:00.823Z,100.00
2022-09-30T01:58:05.775Z,100.00
2022-09-30T02:00:38.452Z,100.00
2022-09-30T02:03:27.896Z,100.00
2022-09-30T02:06:02.478Z,100.00
2022-09-30T02:08:41.665Z,100.00
2022-09-30T02:11:15.825Z,100.00
2022-09-30T02:13:50.507Z,100.00
2022-09-30T02:16:42.616Z,100.00
2022-09-30T02:19:30.197Z,100.00
2022-09-30T02:22:02.263Z,100.00
2022-09-30T02:24:38.807Z,100.00
2022-09-30T02:27:12.919Z,100.00
2022-09-30T02:29:45.911Z,100.00
2022-09-30T02:32:32.091Z,100.00
2022-09-30T02:35:19.923Z,100.00
2022-09-30T02:37:56.486Z,100.00
2022-09-30T02:40:36.682Z,100.00
2022-09-30T02:43:05.662Z,100.00
2022-09-30T02:45:50.553Z,100.00
2022-09-30T02:48:33.466Z,100.00
2022-09-30T02:51:38.079Z,100.00
2022-09-30T02:54:11.314Z,100.00
2022-09-30T02:56:50.723Z,100.00
2022-09-30T02:59:18.654Z,100.00
2022-09-30T03:01:45.945Z,100.00
2022-09-30T03:04:16.214Z,100.00
2022-09-30T03:06:43.917Z,100.00
2022-09-30T03:09:11.315Z,100.00
2022-09-30T03:11:38.790Z,100.00
2022-09-30T03:14:24.358Z,100.00
2022-09-30T03:17:19.151Z,100.00
2022-09-30T03:19:58.543Z,100.00
2022-09-30T03:22:44.525Z,100.00
2022-09-30T03:25:20.855Z,100.00
2022-09-30T03:28:06.170Z,100.00
2022-09-30T03:31:12.331Z,100.00
2022-09-30T03:33:51.832Z,100.00
2022-09-30T03:36:32.274Z,100.00
2022-09-30T03:39:02.762Z,100.00
2022-09-30T03:41:33.089Z,100.00
2022-09-30T03:44:22.356Z,100.00
2022-09-30T03:47:01.512Z,100.00
2022-09-30T03:49:34.818Z,100.00
2022-09-30T03:52:11.102Z,100.00
2022-09-30T03:55:08.058Z,100.00
2022-09-30T03:57:35.450Z,100.00
2022-09-30T04:00:04.667Z,100.00
2022-09-30T04:02:32.918Z,100.00
2022-09-30T04:05:00.009Z,100.00
2022-09-30T04:07:32.580Z,100.00
2022-09-30T04:10:01.883Z,100.00
2022-09-30T04:12:31.089Z,100.00
2022-09-30T04:14:58.291Z,100.00
2022-09-30T04:17:25.547Z,100.00
2022-09-30T04:19:52.941Z,100.00
2022-09-30T04:22:23.190Z,100.00
2022-09-30T04:24:53.524Z,100.00
2022-09-30T04:27:20.663Z,100.00
2022-09-30T04:29:47.981Z,100.00
2022-09-30T04:32:15.385Z,100.00
2022-09-30T04:34:42.557Z,100.00
2022-09-30T04:37:11.030Z,100.00
2022-09-30T04:39:38.524Z,100.00
2022-09-30T04:42:06.301Z,100.00
2022-09-30T04:44:33.413Z,100.00
2022-09-30T04:47:06.886Z,100.00
2022-09-30T04:49:58.151Z,100.00
2022-09-30T04:52:25.149Z,100.00
2022-09-30T04:54:54.117Z,100.00
2022-09-30T04:57:21.348Z,100.00
2022-09-30T04:59:51.095Z,100.00
2022-09-30T05:02:18.373Z,100.00
2022-09-30T05:04:45.774Z,100.00
2022-09-30T05:07:13.046Z,100.00
2022-09-30T05:09:40.508Z,100.00
2022-09-30T05:12:08.376Z,100.00
2022-09-30T05:14:35.752Z,100.00
2022-09-30T05:17:03.001Z,100.00
2022-09-30T05:19:30.930Z,100.00
2022-09-30T05:21:58.237Z,100.00
2022-09-30T05:24:25.422Z,100.00
2022-09-30T05:26:54.181Z,100.00
2022-09-30T05:29:21.416Z,100.00
2022-09-30T05:31:48.939Z,100.00
2022-09-30T05:34:17.022Z,100.00
2022-09-30T05:36:44.567Z,100.00
2022-09-30T05:39:11.737Z,100.00
2022-09-30T05:41:39.185Z,100.00
2022-09-30T05:44:08.777Z,100.00
2022-09-30T05:46:36.011Z,100.00
2022-09-30T05:49:03.480Z,100.00
2022-09-30T05:51:31.852Z,100.00
2022-09-30T05:54:00.921Z,100.00
2022-09-30T05:56:34.963Z,100.00
2022-09-30T05:59:02.364Z,100.00
2022-09-30T06:06:20.352Z,100.00
2022-09-30T06:08:47.987Z,100.00
2022-09-30T06:11:20.899Z,100.00
2022-09-30T06:13:48.859Z,100.00
2022-09-30T06:16:18.777Z,100.00
2022-09-30T06:18:46.830Z,100.00
2022-09-30T06:21:16.111Z,100.00
2022-09-30T06:23:47.134Z,99.74
2022-09-30T06:26:15.021Z,98.27
2022-09-30T06:28:43.290Z,97.42
2022-09-30T06:31:11.634Z,97.30
2022-09-30T06:33:39.300Z,97.35
2022-09-30T06:36:07.582Z,97.48
2022-09-30T06:42:25.197Z,95.57
2022-09-30T06:44:53.680Z,95.56
2022-09-30T06:47:25.218Z,94.96
2022-09-30T06:49:58.672Z,94.65
2022-09-30T06:52:27.278Z,94.81
2022-09-30T06:54:58.004Z,94.89
2022-09-30T06:57:27.961Z,94.98
2022-09-30T06:59:56.269Z,94.23
2022-09-30T07:02:23.578Z,94.40
2022-09-30T07:04:51.214Z,94.46
2022-09-30T07:07:20.281Z,94.24
2022-09-30T07:09:47.869Z,94.13
2022-09-30T07:12:15.402Z,93.51
2022-09-30T07:14:42.666Z,93.62
2022-09-30T07:17:10.038Z,93.56
2022-09-30T07:19:37.116Z,93.23
2022-09-30T07:22:26.031Z,92.83
2022-09-30T07:24:54.277Z,92.11
2022-09-30T07:27:22.008Z,91.19
2022-09-30T07:30:08.196Z,90.89
2022-09-30T07:32:37.642Z,89.98
2022-09-30T07:35:06.275Z,87.54
2022-09-30T07:37:36.240Z,86.73
2022-09-30T07:40:07.298Z,86.05
2022-09-30T07:42:39.524Z,84.22
2022-09-30T07:45:08.048Z,83.89
2022-09-30T07:47:35.293Z,83.87
2022-09-30T07:50:02.459Z,82.91
2022-09-30T07:52:30.454Z,82.80
2022-09-30T07:54:57.765Z,81.79
2022-09-30T07:57:24.851Z,81.32
2022-09-30T07:59:52.307Z,80.25
2022-09-30T08:02:19.746Z,79.75
2022-09-30T08:04:47.497Z,80.11
2022-09-30T08:07:17.318Z,80.53
2022-09-30T08:09:44.876Z,80.23
2022-09-30T08:12:12.243Z,79.51
2022-09-30T08:14:39.694Z,78.66
2022-09-30T08:17:07.116Z,77.43
2022-09-30T08:19:35.494Z,76.80
2022-09-30T08:24:35.560Z,74.50
2022-09-30T08:27:03.173Z,73.65
2022-09-30T08:32:18.561Z,71.24
2022-09-30T08:34:46.140Z,71.10
2022-09-30T08:37:13.900Z,71.14
2022-09-30T08:39:42.504Z,70.78
2022-09-30T08:42:43.768Z,70.16
2022-09-30T08:45:36.545Z,69.26
2022-09-30T08:48:30.292Z,69.21
2022-09-30T08:51:14.629Z,69.06
2022-09-30T08:53:46.794Z,67.74
2022-09-30T08:56:24.050Z,66.91
2022-09-30T08:58:57.310Z,66.60
2022-09-30T09:01:36.624Z,65.44
2022-09-30T09:04:06.898Z,65.94
2022-09-30T09:07:05.684Z,65.50
2022-09-30T09:10:10.487Z,65.21
2022-09-30T09:13:21.917Z,64.41
2022-09-30T09:16:08.079Z,62.62
2022-09-30T09:19:15.606Z,63.29
2022-09-30T09:21:57.436Z,63.07
2022-09-30T09:24:50.759Z,62.28
2022-09-30T09:27:25.068Z,62.99
2022-09-30T09:30:15.279Z,61.00
2022-09-30T09:32:48.454Z,60.57
2022-09-30T09:35:27.924Z,60.25
2022-09-30T09:38:22.784Z,57.79
2022-09-30T09:41:11.132Z,58.77
2022-09-30T09:43:49.518Z,59.19
2022-09-30T09:46:27.067Z,57.75
2022-09-30T09:49:13.920Z,57.81
2022-09-30T09:51:48.526Z,59.08
2022-09-30T09:54:21.257Z,59.52
2022-09-30T09:56:49.039Z,58.76
2022-09-30T09:59:19.863Z,59.41
2022-09-30T10:01:54.565Z,60.89
2022-09-30T10:04:27.758Z,59.67
2022-09-30T10:07:13.420Z,58.13
2022-09-30T10:09:43.330Z,59.16
2022-09-30T10:12:13.856Z,59.79
2022-09-30T10:14:49.199Z,61.38
2022-09-30T10:17:37.462Z,60.61
2022-09-30T10:20:16.495Z,59.20
2022-09-30T10:22:44.030Z,58.50
2022-09-30T10:25:14.086Z,57.78
2022-09-30T10:27:56.979Z,58.12
2022-09-30T10:30:36.702Z,57.14
2022-09-30T10:33:04.448Z,55.65
2022-09-30T10:35:32.123Z,55.22
2022-09-30T10:38:00.723Z,56.53
2022-09-30T10:40:30.420Z,56.08
2022-09-30T10:42:58.617Z,55.79
2022-09-30T10:45:38.947Z,55.17
2022-09-30T10:48:16.832Z,54.97
2022-09-30T10:50:54.062Z,55.69
2022-09-30T10:53:31.147Z,55.17
2022-09-30T10:56:01.788Z,55.48
2022-09-30T10:58:51.279Z,55.65
2022-09-30T11:01:32.763Z,53.43
2022-09-30T11:04:22.136Z,53.22
2022-09-30T11:06:54.675Z,53.11
2022-09-30T11:09:35.197Z,53.20
2022-09-30T11:12:23.443Z,55.07
2022-09-30T11:15:16.790Z,55.12
2022-09-30T11:18:17.389Z,53.93
2022-09-30T11:20:53.429Z,53.34
2022-09-30T11:23:38.754Z,52.67
2022-09-30T11:26:18.968Z,53.70
2022-09-30T11:28:49.166Z,52.80
2022-09-30T11:31:33.048Z,51.71
2022-09-30T11:34:07.369Z,51.64
2022-09-30T11:36:56.501Z,51.46
2022-09-30T11:39:43.516Z,52.48
2022-09-30T11:42:25.476Z,50.23
2022-09-30T11:45:23.913Z,50.29
2022-09-30T11:48:29.325Z,50.70
2022-09-30T11:51:06.014Z,51.09
2022-09-30T11:53:45.285Z,49.93
2022-09-30T11:56:45.618Z,51.37
2022-09-30T11:59:21.518Z,48.49
2022-09-30T12:01:52.398Z,48.41
2022-09-30T12:04:29.659Z,48.30
2022-09-30T12:07:06.152Z,47.32
2022-09-30T12:10:04.887Z,48.21
2022-09-30T12:12:32.666Z,47.95
2022-09-30T12:15:03.137Z,48.49
2022-09-30T12:17:40.631Z,48.27
2022-09-30T12:20:18.252Z,48.25
2022-09-30T12:22:47.827Z,48.36
2022-09-30T12:25:24.855Z,48.15
2022-09-30T12:28:25.304Z,47.34
2022-09-30T12:31:06.001Z,46.66
2022-09-30T12:34:02.133Z,47.20
2022-09-30T12:36:40.411Z,47.46
2022-09-30T12:39:44.772Z,47.87
2022-09-30T12:42:19.339Z,48.53
2022-09-30T12:45:32.438Z,47.11
2022-09-30T12:48:12.831Z,46.97
2022-09-30T12:50:53.024Z,47.11
2022-09-30T12:53:33.164Z,46.47
2022-09-30T12:56:16.186Z,46.81
2022-09-30T12:58:55.476Z,47.18
2022-09-30T13:01:32.966Z,46.58
2022-09-30T13:04:00.809Z,46.04
2022-09-30T13:06:48.813Z,45.94
2022-09-30T13:09:31.437Z,46.99
2022-09-30T13:11:59.480Z,44.76
2022-09-30T13:14:43.570Z,45.43
2022-09-30T13:17:10.781Z,46.22
2022-09-30T13:19:42.893Z,45.16
2022-09-30T13:22:21.402Z,44.83
2022-09-30T13:25:00.922Z,44.73
2022-09-30T13:27:44.353Z,45.73
2022-09-30T13:30:14.737Z,45.50
2022-09-30T13:32:48.333Z,45.53
2022-09-30T13:35:35.522Z,45.68
2022-09-30T13:38:55.498Z,45.91
2022-09-30T13:41:25.214Z,44.70
2022-09-30T13:44:06.225Z,44.27
2022-09-30T13:46:44.174Z,44.59
2022-09-30T13:49:18.675Z,45.10
2022-09-30T13:51:46.715Z,44.88
2022-09-30T13:54:32.274Z,44.86
2022-09-30T13:57:02.730Z,45.10
2022-09-30T13:59:51.132Z,45.54
2022-09-30T14:02:37.019Z,45.28
2022-09-30T14:05:25.127Z,45.46
2022-09-30T14:08:14.698Z,45.81
2022-09-30T14:11:10.301Z,44.87
2022-09-30T14:13:51.365Z,45.84
2022-09-30T14:16:27.897Z,45.18
2022-09-30T14:19:19.830Z,44.70
2022-09-30T14:21:50.967Z,44.36
2022-09-30T14:24:37.268Z,44.21
2022-09-30T14:27:28.124Z,43.44
2022-09-30T14:30:14.514Z,43.88
2022-09-30T14:32:53.722Z,43.83
2022-09-30T14:35:24.635Z,44.06
2022-09-30T14:37:57.082Z,44.18
2022-09-30T14:40:29.298Z,45.11
2022-09-30T14:43:03.467Z,44.71
2022-09-30T14:45:38.913Z,45.06
2022-09-30T14:48:32.657Z,45.71
2022-09-30T14:51:08.233Z,45.62
2022-09-30T14:53:44.623Z,45.40
2022-09-30T14:56:27.612Z,45.31
2022-09-30T14:58:58.277Z,45.87
2022-09-30T15:01:31.080Z,46.42
2022-09-30T15:04:26.554Z,46.42
2022-09-30T15:06:54.648Z,46.66
2022-09-30T15:09:40.452Z,47.12
2022-09-30T15:12:12.233Z,47.25
2022-09-30T15:14:50.321Z,47.82
2022-09-30T15:17:25.178Z,48.69
2022-09-30T15:19:52.902Z,49.58
2022-09-30T15:22:22.011Z,50.75
2022-09-30T15:24:52.882Z,50.80
2022-09-30T15:27:26.263Z,51.89
2022-09-30T15:29:58.659Z,52.97
2022-09-30T15:32:35.725Z,53.63
2022-09-30T15:35:08.809Z,54.35
2022-09-30T15:37:37.780Z,55.19
2022-09-30T15:40:33.716Z,56.05
2022-09-30T15:43:12.156Z,56.86
2022-09-30T15:45:44.117Z,58.04
2022-09-30T15:48:27.384Z,58.54
2022-09-30T15:50:58.449Z,59.56
2022-09-30T15:53:47.323Z,60.39
2022-09-30T15:56:20.430Z,61.18
2022-09-30T15:58:57.934Z,61.79
2022-09-30T16:01:45.798Z,62.30
2022-09-30T16:04:16.352Z,63.00
2022-09-30T16:06:48.833Z,63.79
2022-09-30T16:09:22.424Z,64.70
2022-09-30T16:11:59.483Z,65.25
2022-09-30T16:14:31.322Z,66.27
2022-09-30T16:17:01.276Z,67.02
2022-09-30T16:19:30.465Z,67.24
2022-09-30T16:21:58.631Z,66.66
2022-09-30T16:24:29.026Z,66.87
2022-09-30T16:26:59.337Z,66.79
2022-09-30T16:29:28.102Z,67.62
2022-09-30T16:31:56.984Z,67.56
2022-09-30T16:34:26.602Z,68.58
2022-09-30T16:37:14.834Z,69.09
2022-09-30T16:39:42.359Z,69.76
2022-09-30T16:42:14.838Z,71.12
2022-09-30T16:44:44.649Z,72.44
2022-09-30T16:47:15.116Z,72.55
2022-09-30T16:49:43.404Z,72.91
2022-09-30T16:52:11.712Z,73.53
2022-09-30T16:54:39.814Z,74.34
2022-09-30T16:57:07.203Z,74.75
2022-09-30T16:59:34.848Z,74.89
2022-09-30T17:02:02.487Z,75.69
2022-09-30T17:04:29.836Z,75.29
2022-09-30T17:06:59.145Z,75.96
2022-09-30T17:09:26.491Z,76.72
2022-09-30T17:11:53.752Z,76.96
2022-09-30T17:14:21.280Z,77.42
2022-09-30T17:16:48.524Z,77.79
2022-09-30T17:19:15.829Z,78.33
2022-09-30T17:21:43.138Z,78.33
2022-09-30T17:24:10.626Z,78.80
2022-09-30T17:26:40.093Z,79.76
2022-09-30T17:31:58.822Z,80.30
2022-09-30T17:34:28.284Z,80.39
2022-09-30T17:36:56.617Z,80.43
2022-09-30T17:39:26.661Z,80.14
2022-09-30T17:42:12.325Z,79.65
2022-09-30T17:44:39.692Z,80.16
2022-09-30T17:47:07.032Z,80.71
2022-09-30T17:49:35.800Z,81.25
2022-09-30T17:52:04.099Z,81.65
2022-09-30T17:54:32.475Z,82.09
2022-09-30T17:56:59.783Z,83.02
2022-09-30T17:59:28.768Z,82.79
2022-09-30T18:01:56.864Z,82.89
2022-09-30T18:04:28.164Z,82.22
2022-09-30T18:06:57.289Z,82.49
2022-09-30T18:09:24.650Z,83.10
2022-09-30T18:11:54.069Z,83.09
2022-09-30T18:14:21.576Z,82.69
2022-09-30T18:16:49.136Z,83.10
2022-09-30T18:19:17.396Z,83.36
2022-09-30T18:21:47.833Z,83.36
2022-09-30T18:24:16.229Z,83.59
2022-09-30T18:26:45.413Z,83.97
2022-09-30T18:29:14.148Z,84.29
2022-09-30T18:31:41.693Z,84.96
2022-09-30T18:34:09.479Z,85.65
2022-09-30T18:36:37.545Z,86.19
2022-09-30T18:39:05.370Z,85.55
2022-09-30T18:41:35.283Z,85.69
2022-09-30T18:44:03.388Z,85.60
2022-09-30T18:46:31.989Z,86.18
2022-09-30T18:48:59.256Z,86.95
2022-09-30T18:51:26.633Z,87.29
2022-09-30T18:53:58.447Z,88.19
2022-09-30T18:56:32.271Z,89.56
2022-09-30T18:59:01.376Z,89.89
2022-09-30T19:01:28.879Z,90.10
2022-09-30T19:04:03.245Z,90.45
2022-09-30T19:06:30.875Z,91.34
2022-09-30T19:08:58.247Z,91.71
2022-09-30T19:11:26.828Z,92.45
2022-09-30T19:13:56.491Z,92.82
2022-09-30T19:16:25.315Z,92.80
2022-09-30T19:18:53.151Z,93.11
2022-09-30T19:21:22.874Z,93.33
2022-09-30T19:23:50.346Z,93.43
2022-09-30T19:26:17.734Z,93.91
2022-09-30T19:28:44.864Z,94.82
2022-09-30T19:31:17.727Z,94.73
2022-09-30T19:33:56.136Z,95.29
2022-09-30T19:36:26.876Z,95.26
2022-09-30T19:39:08.917Z,95.41
2022-09-30T19:41:38.454Z,95.49
2022-09-30T19:44:05.677Z,96.21
2022-09-30T19:46:33.157Z,95.49
2022-09-30T19:49:00.351Z,95.56
2022-09-30T19:51:30.927Z,95.94
2022-09-30T19:54:06.308Z,96.34
2022-09-30T19:56:36.590Z,96.24
2022-09-30T19:59:04.619Z,96.07
2022-09-30T20:01:35.019Z,95.71
2022-09-30T20:04:05.467Z,95.68
2022-09-30T20:06:34.775Z,95.50
2022-09-30T20:09:04.441Z,95.44
2022-09-30T20:11:34.583Z,95.73
2022-09-30T20:14:22.286Z,95.70
2022-09-30T20:16:50.000Z,95.88
2022-09-30T20:19:18.639Z,95.08
2022-09-30T20:21:46.727Z,95.24
2022-09-30T20:24:15.627Z,95.59
2022-09-30T20:26:45.051Z,95.65
2022-09-30T20:29:13.399Z,96.12
2022-09-30T20:31:42.808Z,96.40
2022-09-30T20:34:13.462Z,96.62
2022-09-30T20:36:41.529Z,97.19
2022-09-30T20:39:08.679Z,97.21
2022-09-30T20:41:38.638Z,97.55
2022-09-30T20:44:08.610Z,97.88
2022-09-30T20:46:36.113Z,98.03
2022-09-30T20:49:04.550Z,97.98
2022-09-30T20:51:32.434Z,98.52
2022-09-30T20:54:01.078Z,98.68
2022-09-30T20:56:44.055Z,98.68
2022-09-30T20:59:17.383Z,99.25
2022-09-30T21:01:45.053Z,99.31
2022-09-30T21:04:12.255Z,99.82
2022-09-30T21:06:39.732Z,100.00
2022-09-30T21:09:06.979Z,100.00
2022-09-30T21:11:34.432Z,100.00
2022-09-30T21:14:02.092Z,100.00
2022-09-30T21:16:29.812Z,100.00
2022-09-30T21:18:57.127Z,100.00
2022-09-30T21:21:25.849Z,100.00
2022-09-30T21:23:58.871Z,100.00
2022-09-30T21:26:29.086Z,100.00
2022-09-30T21:29:02.304Z,100.00
2022-09-30T21:31:30.275Z,100.00
2022-09-30T21:33:59.992Z,100.00
2022-09-30T21:36:28.508Z,100.00
2022-09-30T21:39:03.360Z,100.00
2022-09-30T21:41:33.218Z,100.00
2022-09-30T21:44:01.594Z,100.00
2022-09-30T21:46:29.733Z,100.00
2022-09-30T21:49:17.419Z,100.00
2022-09-30T21:51:44.941Z,100.00
2022-09-30T21:54:14.122Z,100.00
2022-09-30T21:56:43.072Z,100.00
2022-09-30T21:59:11.768Z,100.00
2022-09-30T22:01:39.772Z,100.00
2022-09-30T22:04:07.765Z,100.00
2022-09-30T22:06:35.205Z,100.00
2022-09-30T22:09:03.191Z,100.00
2022-09-30T22:11:31.508Z,100.00
2022-09-30T22:14:00.490Z,100.00
2022-09-30T22:16:35.278Z,100.00
2022-09-30T22:19:05.411Z,100.00
2022-09-30T22:21:35.987Z,100.00
2022-09-30T22:24:05.853Z,100.00
2022-09-30T22:26:33.885Z,100.00
2022-09-30T22:29:05.253Z,100.00
2022-09-30T22:31:33.679Z,100.00
2022-09-30T22:34:23.250Z,100.00
2022-09-30T22:37:09.538Z,100.00
2022-09-30T22:39:37.272Z,100.00
2022-09-30T22:42:04.814Z,100.00
2022-09-30T22:44:34.031Z,100.00
2022-09-30T22:47:02.127Z,100.00
2022-09-30T22:49:33.511Z,100.00
2022-09-30T22:52:02.163Z,100.00
2022-09-30T22:54:30.446Z,100.00
2022-09-30T22:56:59.435Z,100.00
2022-09-30T22:59:28.798Z,100.00
2022-09-30T23:01:59.607Z,100.00
2022-09-30T23:04:29.140Z,100.00
2022-09-30T23:06:56.634Z,100.00
2022-09-30T23:09:24.363Z,100.00
2022-09-30T23:11:54.525Z,100.00
2022-09-30T23:14:22.870Z,100.00
2022-09-30T23:16:50.996Z,100.00
2022-09-30T23:19:20.530Z,100.00
2022-09-30T23:21:47.912Z,100.00
2022-09-30T23:24:15.937Z,100.00
2022-09-30T23:26:43.885Z,100.00
2022-09-30T23:29:13.424Z,100.00
2022-09-30T23:31:41.342Z,100.00
2022-09-30T23:34:09.362Z,100.00
2022-09-30T23:36:37.845Z,100.00
2022-09-30T23:39:12.930Z,100.00
2022-09-30T23:41:41.048Z,100.00
2022-09-30T23:44:10.133Z,100.00
2022-09-30T23:46:37.604Z,100.00
2022-09-30T23:49:05.148Z,100.00
2022-09-30T23:51:34.455Z,100.00
2022-09-30T23:54:02.466Z,100.00
2022-09-30T23:56:29.779Z,100.00
2022-09-30T23:58:57.490Z,100.00
